Notice: Undefined index: language in /home/u294900127/public_html/vam/index.php on line 31
Aeroboteco

 INFORMAÇÕES METEOROLÓGICAS
METAR FOR SBMT
ADDS - METARS form results

(1524 UTC 26 May 2018)
Data provider http://aviationweather.gov/adds/metars/
 
METAR text: SBMT 261500Z 09006KT 9000 NSC 20/13 Q1024
Conditions at: SBMT (MARTE (CIV/MIL) , BR) observed 1500 UTC 26 May 2018
Temperature: 20.0°C (68°F)
Dewpoint: 13.0°C (55°F) [RH = 64%]
Pressure (altimeter): 30.24 inches Hg (1024.0 mb)
Winds: from the E (90 degrees) at 7 MPH (6 knots; 3.1 m/s)
Visibility: 6 miles (9 km)
Ceiling: at least 12,000 feet AGL
Clouds: sky clear below 12,000 feet AGL
Weather: no significant weather observed at this time

 MAPA DO AEROPORTO

 INFORMAÇÕES DA PISTA
Pista 12 Tamanho da pista 5249 ft Largura da pista 147 ft
Elevação da pista 2379 ft Ranhura da pista 984 ft Proa da pista 100
Pista 30 Tamanho da pista 5249 ft Largura da pista 147 ft
Elevação da pista 2376 ft Ranhura da pista 492 ft Proa da pista 280

 FREQUÊNCIAS DO AEROPORTO
Tipo APP Nome SAO PAULO Frequência 119.8 MHZ
Tipo GND Nome GND Frequência 121.6 MHZ
Tipo OPS Nome OPS Frequência 122.5 MHZ
Tipo TWR Nome TWR Frequência 118.7 MHZ

 AUXÍLIOS DE NAVEGAÇÃO PRÓXIMOS AO AEROPORTO
Tipo NDB Nome Marte Frequência 260 KHZ



Powered by Virtual Airlines Manager [v2.6.2]